Погода Маэватананана неделю

Антананариву, Мадагаскар

16 - 22 июля
  • 16июля
    Сегодня
    +17°
    +34°
    Ясно и безоблачно
    ВремяПогодаТемператураВлажностьДавлениеВетер, м/сВероятность осадков
    00:00Ясно и безоблачно+21°C51 %756 мм3.4 м/с5 %
    03:00Ясно и безоблачно+19°C58 %755 мм2.8 м/с5 %
    06:00Ясно и безоблачно+18°C68 %756 мм1.5 м/с5 %
    09:00Ясно и безоблачно+25°C50 %757 мм1.5 м/с5 %
    12:00Ясно и безоблачно+31°C32 %756 мм1.5 м/с5 %
    15:00Ясно и безоблачно+34°C24 %754 мм1.0 м/с5 %
    18:00Ясно и безоблачно+27°C33 %755 мм0.7 м/с5 %
    21:00Ясно и безоблачно+22°C43 %755 мм1.9 м/с5 %
  • 17июля
    Среда
    +17°
    +34°
    Небольшая облачность
    ВремяПогодаТемператураВлажностьДавлениеВетер, м/сВероятность осадков
    00:00Ясно и безоблачно+20°C47 %756 мм2.6 м/с5 %
    03:00Ясно и безоблачно+18°C63 %755 мм0.7 м/с5 %
    06:00Ясно и безоблачно+17°C73 %756 мм1.5 м/с5 %
    09:00Ясно и безоблачно+25°C55 %758 мм1.4 м/с5 %
    12:00Облачно с прояснениями+32°C30 %756 мм2.3 м/с5 %
    15:00Небольшая облачность+34°C26 %755 мм2.1 м/с5 %
    18:00Ясно и безоблачно+25°C40 %755 мм1.0 м/с5 %
    21:00Ясно и безоблачно+23°C44 %756 мм1.5 м/с5 %
  • 18июля
    Четверг
    +17°
    +34°
    Ясно и безоблачно
    ВремяПогодаТемператураВлажностьДавлениеВетер, м/сВероятность осадков
    00:00Ясно и безоблачно+22°C52 %756 мм2.8 м/с5 %
    03:00Ясно и безоблачно+19°C67 %755 мм0.9 м/с5 %
    06:00Ясно и безоблачно+17°C71 %756 мм2.2 м/с5 %
    09:00Ясно и безоблачно+26°C52 %758 мм2.2 м/с5 %
    12:00Ясно и безоблачно+32°C37 %756 мм2.5 м/с5 %
    15:00Ясно и безоблачно+34°C29 %754 мм1.9 м/с5 %
    18:00Ясно и безоблачно+27°C43 %755 мм0.6 м/с5 %
    21:00Ясно и безоблачно+24°C45 %756 мм3.2 м/с5 %
  • 19июля
    Пятница
    +17°
    +34°
    Небольшая облачность
    ВремяПогодаТемператураВлажностьДавлениеВетер, м/сВероятность осадков
    00:00Ясно и безоблачно+22°C51 %756 мм3.0 м/с5 %
    03:00Ясно и безоблачно+19°C57 %755 мм2.7 м/с5 %
    06:00Ясно и безоблачно+18°C70 %756 мм0.8 м/с5 %
    09:00Ясно и безоблачно+25°C48 %757 мм0.6 м/с5 %
    12:00Ясно и безоблачно+32°C29 %756 мм1.8 м/с5 %
    15:00Небольшая облачность+33°C22 %754 мм1.3 м/с5 %
    18:00Ясно и безоблачно+26°C32 %754 мм2.9 м/с5 %
    21:00Ясно и безоблачно+23°C40 %755 мм0.8 м/с5 %
Мы используем cookies
Соглашаюсь